createdAt,value
2023-12-11T00:01:56.640Z,34.30
2023-12-11T00:07:02.226Z,31.45
2023-12-11T00:12:06.847Z,33.92
2023-12-11T00:17:11.110Z,33.80
2023-12-11T00:22:16.765Z,29.05
2023-12-11T00:27:20.953Z,27.05
2023-12-11T00:32:25.154Z,22.60
2023-12-11T00:37:31.019Z,23.13
2023-12-11T00:42:36.652Z,21.80
2023-12-11T00:47:41.399Z,24.23
2023-12-11T00:52:47.238Z,40.72
2023-12-11T00:57:51.506Z,36.40
2023-12-11T01:02:55.641Z,25.67
2023-12-11T01:08:01.115Z,23.98
2023-12-11T01:13:05.315Z,27.05
2023-12-11T01:18:09.912Z,25.17
2023-12-11T01:23:15.642Z,27.75
2023-12-11T01:28:19.948Z,28.02
2023-12-11T01:33:24.246Z,28.48
2023-12-11T01:38:30.413Z,30.42
2023-12-11T01:43:34.835Z,29.70
2023-12-11T01:48:39.371Z,33.08
2023-12-11T01:53:47.106Z,33.25
2023-12-11T01:58:51.746Z,35.65
2023-12-11T02:03:56.028Z,29.20
2023-12-11T02:09:03.249Z,29.27
2023-12-11T02:14:07.514Z,32.00
2023-12-11T02:19:12.031Z,32.00
2023-12-11T02:24:24.104Z,32.38
2023-12-11T02:29:29.833Z,37.42
2023-12-11T02:34:34.181Z,34.20
2023-12-11T02:39:39.097Z,37.35
2023-12-11T02:44:44.742Z,34.78
2023-12-11T02:49:49.017Z,36.20
2023-12-11T02:54:53.602Z,38.83
2023-12-11T02:59:59.176Z,36.33
2023-12-11T03:05:03.693Z,35.20
2023-12-11T03:10:09.283Z,41.30
2023-12-11T03:15:16.025Z,39.80
2023-12-11T03:20:20.428Z,39.80
2023-12-11T03:25:25.796Z,34.55
2023-12-11T03:30:31.417Z,27.05
2023-12-11T03:35:35.921Z,22.52
2023-12-11T03:40:40.026Z,21.05
2023-12-11T03:45:48.770Z,20.50
2023-12-11T03:50:52.978Z,25.65
2023-12-11T03:55:58.124Z,30.48
2023-12-11T04:01:03.769Z,30.40
2023-12-11T04:06:08.248Z,28.45
2023-12-11T04:11:12.648Z,26.63
2023-12-11T04:16:18.167Z,27.00
2023-12-11T04:21:22.401Z,28.05
2023-12-11T04:26:26.731Z,28.63
2023-12-11T04:31:32.351Z,31.10
2023-12-11T04:36:36.514Z,37.08
2023-12-11T04:41:40.754Z,34.13
2023-12-11T04:46:46.266Z,38.75
2023-12-11T04:51:50.440Z,40.67
2023-12-11T04:56:54.896Z,40.67
2023-12-11T05:02:00.614Z,44.65
2023-12-11T05:07:05.234Z,46.83
2023-12-11T05:12:10.132Z,45.28
2023-12-11T05:17:15.706Z,44.35
2023-12-11T05:22:19.936Z,45.08
2023-12-11T05:27:24.505Z,57.63
2023-12-11T05:32:30.169Z,57.35
2023-12-11T05:37:34.488Z,52.75
2023-12-11T05:42:39.789Z,36.25
2023-12-11T05:47:45.650Z,31.90
2023-12-11T05:52:50.181Z,33.40
2023-12-11T05:57:54.545Z,32.58
2023-12-11T06:03:00.599Z,26.38
2023-12-11T06:08:05.025Z,27.63
2023-12-11T06:13:09.117Z,28.48
2023-12-11T06:18:14.923Z,26.73
2023-12-11T06:23:19.084Z,25.52
2023-12-11T06:28:23.301Z,35.55
2023-12-11T06:33:28.830Z,35.17
2023-12-11T06:38:33.117Z,34.20
2023-12-11T06:43:38.019Z,26.25
2023-12-11T06:48:43.799Z,31.80
2023-12-11T06:53:48.020Z,37.50
2023-12-11T06:58:52.802Z,41.83
2023-12-11T07:03:59.117Z,39.30
2023-12-11T07:09:04.324Z,29.60
2023-12-11T07:14:09.084Z,25.95
2023-12-11T07:19:14.819Z,28.70
2023-12-11T07:24:19.184Z,23.80
2023-12-11T07:29:23.709Z,35.10
2023-12-11T07:34:30.554Z,51.85
2023-12-11T07:39:36.030Z,43.13
2023-12-11T07:44:41.165Z,32.03
2023-12-11T07:49:46.764Z,94.90
2023-12-11T07:54:50.944Z,110.07
2023-12-11T07:59:55.556Z,109.28
2023-12-11T08:05:01.395Z,104.47
2023-12-11T08:10:06.698Z,105.25
2023-12-11T08:15:11.746Z,110.88
2023-12-11T08:20:18.921Z,106.63
2023-12-11T08:25:23.743Z,86.07
2023-12-11T08:30:28.023Z,64.15
2023-12-11T08:35:36.260Z,43.55
2023-12-11T08:40:40.920Z,98.07
2023-12-11T08:45:45.685Z,81.22
2023-12-11T08:50:53.958Z,77.43
2023-12-11T08:55:58.158Z,57.55
2023-12-11T09:01:02.391Z,55.67
2023-12-11T09:06:09.872Z,35.80
2023-12-11T09:11:14.002Z,51.47
2023-12-11T09:16:18.326Z,45.28
2023-12-11T09:21:25.316Z,40.80
2023-12-11T09:26:29.494Z,28.88
2023-12-11T09:31:33.840Z,17.35
2023-12-11T09:36:39.488Z,20.85
2023-12-11T09:41:46.327Z,18.17
2023-12-11T09:46:55.542Z,15.95
2023-12-11T09:52:06.025Z,18.67
2023-12-11T09:57:12.550Z,18.27
2023-12-11T10:02:18.595Z,11.98
2023-12-11T10:07:24.678Z,10.43
2023-12-11T10:12:41.502Z,10.00
2023-12-11T10:18:01.169Z,9.52
2023-12-11T10:23:18.711Z,10.70
2023-12-11T10:28:25.444Z,10.18
2023-12-11T10:33:32.590Z,10.13
2023-12-11T10:39:42.047Z,10.30
2023-12-11T10:45:25.266Z,10.95
2023-12-11T10:50:29.716Z,9.73
2023-12-11T10:55:34.597Z,9.85
2023-12-11T11:00:41.745Z,8.05
2023-12-11T11:05:48.393Z,10.20
2023-12-11T11:10:56.834Z,8.95
2023-12-11T11:16:02.776Z,10.00
2023-12-11T11:21:11.446Z,8.02
2023-12-11T11:26:35.981Z,8.77
2023-12-11T11:31:52.668Z,7.78
2023-12-11T11:36:59.235Z,7.43
2023-12-11T11:42:04.709Z,7.03
2023-12-11T11:47:10.065Z,8.23
2023-12-11T11:52:15.929Z,7.93
2023-12-11T11:57:28.364Z,9.50
2023-12-11T12:02:34.028Z,6.72
2023-12-11T12:07:40.144Z,8.35
2023-12-11T12:12:44.620Z,8.35
2023-12-11T12:17:50.292Z,7.55
2023-12-11T12:22:58.773Z,9.00
2023-12-11T12:28:06.225Z,9.17
2023-12-11T12:33:14.182Z,8.82
2023-12-11T12:38:18.934Z,9.85
2023-12-11T12:43:24.420Z,10.00
2023-12-11T12:48:32.884Z,8.65
2023-12-11T12:53:48.020Z,7.97
2023-12-11T12:58:55.173Z,10.10
2023-12-11T13:04:03.471Z,8.82
2023-12-11T13:09:09.999Z,8.77
2023-12-11T13:14:14.447Z,8.35
2023-12-11T13:19:21.011Z,11.20
2023-12-11T13:24:25.127Z,13.75
2023-12-11T13:29:29.266Z,14.10
2023-12-11T13:34:34.968Z,13.88
2023-12-11T13:39:39.454Z,13.10
2023-12-11T13:44:43.718Z,12.40
2023-12-11T13:49:49.209Z,13.70
2023-12-11T13:54:54.457Z,14.90
2023-12-11T13:59:58.760Z,16.17
2023-12-11T14:05:07.057Z,25.52
2023-12-11T14:10:12.285Z,19.65
2023-12-11T14:15:17.201Z,16.80
2023-12-11T14:20:22.757Z,18.65
2023-12-11T14:25:27.728Z,29.83
2023-12-11T14:30:35.533Z,52.83
2023-12-11T14:35:41.325Z,70.57
2023-12-11T14:40:45.763Z,28.70
2023-12-11T14:45:50.903Z,14.85
2023-12-11T14:50:56.621Z,24.75
2023-12-11T14:56:00.605Z,26.17
2023-12-11T15:01:05.118Z,24.55
2023-12-11T15:06:11.562Z,19.73
2023-12-11T15:11:19.164Z,49.33
2023-12-11T15:16:23.670Z,43.65
2023-12-11T15:21:30.230Z,46.38
2023-12-11T15:26:34.272Z,56.10
2023-12-11T15:31:39.396Z,50.25
2023-12-11T15:36:45.002Z,29.98
2023-12-11T15:41:51.197Z,16.42
2023-12-11T15:46:55.339Z,18.50
2023-12-11T15:52:00.812Z,34.65
2023-12-11T15:57:08.052Z,12.73
2023-12-11T16:02:12.332Z,27.02
2023-12-11T16:07:18.196Z,69.45
2023-12-11T16:12:22.743Z,44.42
2023-12-11T16:17:26.965Z,44.42
2023-12-11T16:22:35.977Z,59.78
2023-12-11T16:27:40.511Z,32.88
2023-12-11T16:32:44.792Z,18.80
2023-12-11T16:37:50.540Z,40.58
2023-12-11T16:42:54.889Z,103.35
2023-12-11T16:47:59.468Z,87.32
2023-12-11T16:53:07.239Z,101.22
2023-12-11T16:58:11.722Z,64.55
2023-12-11T17:03:16.186Z,45.25
2023-12-11T17:08:21.846Z,42.78
2023-12-11T17:13:26.964Z,45.35
2023-12-11T17:18:31.955Z,31.02
2023-12-11T17:23:39.000Z,30.08
2023-12-11T17:28:43.377Z,34.78
2023-12-11T17:33:55.876Z,44.63
2023-12-11T17:39:01.829Z,32.20
2023-12-11T17:44:06.082Z,24.05
2023-12-11T17:49:10.338Z,43.80
2023-12-11T17:54:15.784Z,36.38
2023-12-11T17:59:20.095Z,32.13
2023-12-11T18:04:24.202Z,44.65
2023-12-11T18:09:29.542Z,49.42
2023-12-11T18:14:33.677Z,37.90
2023-12-11T18:19:37.840Z,46.75
2023-12-11T18:24:43.479Z,47.38
2023-12-11T18:29:48.239Z,30.50
2023-12-11T18:34:54.933Z,29.77
2023-12-11T18:40:02.077Z,17.92
2023-12-11T18:45:09.999Z,18.50
2023-12-11T18:50:14.300Z,23.83
2023-12-11T18:55:20.189Z,28.35
2023-12-11T19:00:24.534Z,20.77
2023-12-11T19:05:28.782Z,19.73
2023-12-11T19:10:34.273Z,20.25
2023-12-11T19:15:38.509Z,23.55
2023-12-11T19:20:42.837Z,29.75
2023-12-11T19:25:48.202Z,22.65
2023-12-11T19:30:52.256Z,20.05
2023-12-11T19:35:56.341Z,19.77
2023-12-11T19:41:02.857Z,17.77
2023-12-11T19:46:08.246Z,18.90
2023-12-11T19:51:16.350Z,20.33
2023-12-11T19:56:27.402Z,29.10
2023-12-11T20:01:34.968Z,42.25
2023-12-11T20:06:40.481Z,41.13
2023-12-11T20:11:47.310Z,41.60
2023-12-11T20:16:51.502Z,41.05
2023-12-11T20:21:55.508Z,21.10
2023-12-11T20:27:00.845Z,20.95
2023-12-11T20:32:05.495Z,16.55
2023-12-11T20:37:09.852Z,19.85
2023-12-11T20:42:16.150Z,25.00
2023-12-11T20:47:20.149Z,26.65
2023-12-11T20:52:24.240Z,21.45
2023-12-11T20:57:31.699Z,18.27
2023-12-11T21:02:37.272Z,16.83
2023-12-11T21:07:42.835Z,24.75
2023-12-11T21:12:48.241Z,51.92
2023-12-11T21:17:52.467Z,78.75
2023-12-11T21:22:56.508Z,63.15
2023-12-11T21:28:01.863Z,45.85
2023-12-11T21:33:05.859Z,40.10
2023-12-11T21:38:11.644Z,42.60
2023-12-11T21:43:17.824Z,46.30
2023-12-11T21:48:22.386Z,60.67
2023-12-11T21:53:26.469Z,51.92
2023-12-11T21:58:31.855Z,43.70
2023-12-11T22:03:35.888Z,33.60
2023-12-11T22:08:39.858Z,45.97
2023-12-11T22:13:46.536Z,52.30
2023-12-11T22:18:51.092Z,39.03
2023-12-11T22:23:55.486Z,32.00
2023-12-11T22:29:00.915Z,37.80
2023-12-11T22:34:05.402Z,62.40
2023-12-11T22:39:09.580Z,65.25
2023-12-11T22:44:15.065Z,59.30
2023-12-11T22:49:19.156Z,57.80
2023-12-11T22:54:23.289Z,54.60
2023-12-11T22:59:28.654Z,49.50
2023-12-11T23:04:32.728Z,42.42
2023-12-11T23:09:36.981Z,46.47
2023-12-11T23:14:42.373Z,43.10
2023-12-11T23:19:46.604Z,40.67
2023-12-11T23:24:50.911Z,34.92
2023-12-11T23:30:04.047Z,31.35
2023-12-11T23:35:11.629Z,29.33
2023-12-11T23:40:15.788Z,46.63
2023-12-11T23:45:21.196Z,56.60
2023-12-11T23:50:25.190Z,45.40
2023-12-11T23:55:30.064Z,43.38
